createdAt,value
2023-03-19T00:00:43.682Z,34.10
2023-03-19T00:03:55.422Z,34.40
2023-03-19T00:07:05.144Z,34.70
2023-03-19T00:10:17.345Z,34.40
2023-03-19T00:13:27.415Z,34.70
2023-03-19T00:16:38.257Z,33.60
2023-03-19T00:19:48.280Z,33.30
2023-03-19T00:23:01.220Z,33.50
2023-03-19T00:26:13.072Z,33.60
2023-03-19T00:29:22.246Z,35.00
2023-03-19T00:32:34.151Z,35.40
2023-03-19T00:35:46.379Z,35.00
2023-03-19T00:38:57.203Z,34.00
2023-03-19T00:42:10.771Z,33.60
2023-03-19T00:45:22.086Z,34.30
2023-03-19T00:48:35.942Z,34.90
2023-03-19T00:51:46.704Z,35.20
2023-03-19T00:54:54.882Z,35.00
2023-03-19T00:58:08.273Z,34.90
2023-03-19T01:01:20.219Z,34.80
2023-03-19T01:04:28.406Z,34.70
2023-03-19T01:07:39.000Z,34.60
2023-03-19T01:10:49.274Z,34.50
2023-03-19T01:14:01.765Z,34.30
2023-03-19T01:17:14.659Z,34.40
2023-03-19T01:20:27.749Z,34.40
2023-03-19T01:23:37.530Z,34.40
2023-03-19T01:26:50.472Z,34.30
2023-03-19T01:30:00.217Z,34.30
2023-03-19T01:33:13.648Z,34.10
2023-03-19T01:36:25.259Z,34.10
2023-03-19T01:39:36.191Z,34.10
2023-03-19T01:43:01.161Z,34.00
2023-03-19T01:46:14.973Z,33.80
2023-03-19T01:49:26.274Z,33.70
2023-03-19T01:52:39.953Z,33.60
2023-03-19T01:55:50.851Z,33.50
2023-03-19T01:59:04.642Z,33.50
2023-03-19T02:02:15.024Z,33.40
2023-03-19T02:05:27.071Z,33.30
2023-03-19T02:08:39.760Z,33.30
2023-03-19T02:11:49.235Z,33.30
2023-03-19T02:14:59.685Z,33.30
2023-03-19T02:18:11.661Z,33.30
2023-03-19T02:21:19.339Z,33.30
2023-03-19T02:24:34.218Z,33.20
2023-03-19T02:27:43.995Z,33.30
2023-03-19T02:30:55.610Z,33.40
2023-03-19T02:34:07.581Z,33.30
2023-03-19T02:37:17.675Z,33.30
2023-03-19T02:40:28.158Z,33.30
2023-03-19T02:43:40.841Z,33.30
2023-03-19T02:46:50.678Z,33.30
2023-03-19T02:50:03.806Z,33.60
2023-03-19T02:53:11.968Z,33.50
2023-03-19T02:56:21.150Z,34.00
2023-03-19T02:59:32.807Z,35.60
2023-03-19T03:02:41.702Z,36.40
2023-03-19T03:05:49.792Z,35.80
2023-03-19T03:09:00.088Z,35.50
2023-03-19T03:12:13.634Z,35.60
2023-03-19T03:15:24.594Z,35.30
2023-03-19T03:18:35.114Z,35.00
2023-03-19T03:21:45.580Z,34.70
2023-03-19T03:24:54.793Z,34.40
2023-03-19T03:28:07.345Z,34.30
2023-03-19T03:31:21.329Z,34.40
2023-03-19T03:34:31.924Z,34.80
2023-03-19T03:37:41.931Z,33.90
2023-03-19T03:40:54.931Z,33.70
2023-03-19T03:44:06.431Z,33.80
2023-03-19T03:47:17.055Z,33.70
2023-03-19T03:50:28.419Z,33.70
2023-03-19T03:53:38.052Z,33.50
2023-03-19T03:56:47.101Z,33.50
2023-03-19T03:59:57.412Z,33.50
2023-03-19T04:03:08.205Z,33.50
2023-03-19T04:06:20.558Z,33.50
2023-03-19T04:09:32.914Z,33.50
2023-03-19T04:12:43.889Z,33.50
2023-03-19T04:15:56.197Z,33.50
2023-03-19T04:19:04.291Z,33.50
2023-03-19T04:22:16.826Z,33.40
2023-03-19T04:25:27.754Z,33.30
2023-03-19T04:28:38.115Z,33.50
2023-03-19T04:31:50.788Z,33.60
2023-03-19T04:35:03.273Z,33.40
2023-03-19T04:38:16.470Z,33.00
2023-03-19T04:41:29.431Z,32.80
2023-03-19T04:44:39.189Z,32.90
2023-03-19T04:47:48.351Z,33.00
2023-03-19T04:50:59.880Z,33.20
2023-03-19T04:54:08.765Z,33.50
2023-03-19T04:57:19.843Z,33.50
2023-03-19T05:00:31.218Z,33.50
2023-03-19T05:03:40.592Z,33.00
2023-03-19T05:06:50.861Z,32.90
2023-03-19T05:10:01.788Z,32.90
2023-03-19T05:13:10.231Z,33.00
2023-03-19T05:16:24.405Z,33.10
2023-03-19T05:19:36.033Z,33.40
2023-03-19T05:22:49.000Z,33.50
2023-03-19T05:26:00.227Z,33.50
2023-03-19T05:29:12.574Z,33.40
2023-03-19T05:32:21.749Z,33.20
2023-03-19T05:35:33.507Z,32.90
2023-03-19T05:38:46.014Z,33.10
2023-03-19T05:41:56.865Z,33.10
2023-03-19T05:45:08.779Z,33.30
2023-03-19T05:48:19.610Z,33.50
2023-03-19T05:51:28.118Z,33.50
2023-03-19T05:54:38.112Z,33.50
2023-03-19T05:57:48.683Z,33.40
2023-03-19T06:00:59.466Z,33.40
2023-03-19T06:04:12.957Z,33.10
2023-03-19T06:07:20.861Z,33.10
2023-03-19T06:10:33.375Z,33.10
2023-03-19T06:13:45.730Z,33.30
2023-03-19T06:16:58.026Z,33.40
2023-03-19T06:20:08.573Z,33.50
2023-03-19T06:23:21.223Z,33.50
2023-03-19T06:26:32.028Z,33.40
2023-03-19T06:29:42.151Z,33.10
2023-03-19T06:32:54.822Z,33.20
2023-03-19T06:36:06.587Z,33.20
2023-03-19T06:39:16.317Z,33.30
2023-03-19T06:42:28.437Z,33.50
2023-03-19T06:45:38.399Z,33.50
2023-03-19T06:48:51.072Z,33.50
2023-03-19T06:52:00.965Z,33.30
2023-03-19T06:55:13.243Z,33.00
2023-03-19T06:58:26.754Z,33.10
2023-03-19T07:01:37.542Z,33.20
2023-03-19T07:04:49.820Z,33.40
2023-03-19T07:07:59.100Z,33.50
2023-03-19T07:11:10.973Z,33.60
2023-03-19T07:14:23.484Z,33.50
2023-03-19T07:17:33.963Z,33.50
2023-03-19T07:20:41.280Z,33.10
2023-03-19T07:23:53.004Z,33.10
2023-03-19T07:27:04.073Z,33.10
2023-03-19T07:30:18.254Z,33.20
2023-03-19T07:33:30.532Z,33.40
2023-03-19T07:36:43.145Z,33.50
2023-03-19T07:39:51.569Z,33.50
2023-03-19T07:43:03.974Z,33.40
2023-03-19T07:46:16.845Z,33.10
2023-03-19T07:49:30.691Z,33.10
2023-03-19T07:52:45.267Z,33.20
2023-03-19T07:55:55.743Z,33.20
2023-03-19T07:59:05.342Z,33.40
2023-03-19T08:02:23.314Z,33.40
2023-03-19T08:05:33.834Z,33.40
2023-03-19T08:08:41.928Z,33.30
2023-03-19T08:11:51.492Z,33.00
2023-03-19T08:15:01.713Z,33.10
2023-03-19T08:18:14.186Z,33.10
2023-03-19T08:21:24.836Z,33.20
2023-03-19T08:24:34.856Z,33.40
2023-03-19T08:27:46.560Z,33.40
2023-03-19T08:30:57.361Z,33.50
2023-03-19T08:34:08.875Z,33.40
2023-03-19T08:37:17.779Z,33.20
2023-03-19T08:40:28.629Z,33.20
2023-03-19T08:43:40.299Z,33.20
2023-03-19T08:46:53.111Z,33.20
2023-03-19T08:50:05.101Z,33.40
2023-03-19T08:53:16.106Z,33.50
2023-03-19T08:56:28.004Z,33.40
2023-03-19T08:59:40.658Z,33.40
2023-03-19T09:02:52.025Z,33.40
2023-03-19T09:06:04.584Z,33.00
2023-03-19T09:09:17.012Z,33.00
2023-03-19T09:12:29.433Z,33.30
2023-03-19T09:15:41.804Z,33.40
2023-03-19T09:18:50.388Z,33.60
2023-03-19T09:22:01.644Z,33.60
2023-03-19T09:25:13.460Z,33.60
2023-03-19T09:28:25.011Z,33.60
2023-03-19T09:31:33.934Z,33.30
2023-03-19T09:34:46.236Z,33.30
2023-03-19T09:37:57.472Z,33.90
2023-03-19T09:41:12.470Z,33.40
2023-03-19T09:44:22.880Z,33.40
2023-03-19T09:47:34.944Z,33.50
2023-03-19T09:50:47.585Z,33.60
2023-03-19T09:53:59.829Z,33.60
2023-03-19T09:57:14.514Z,33.60
2023-03-19T10:00:28.993Z,33.30
2023-03-19T10:03:48.121Z,33.30
2023-03-19T10:07:00.289Z,33.30
2023-03-19T10:10:23.790Z,33.30
2023-03-19T10:13:41.565Z,33.50
2023-03-19T10:16:55.323Z,33.40
2023-03-19T10:20:09.684Z,33.50
2023-03-19T10:23:44.372Z,33.50
2023-03-19T10:26:56.092Z,33.10
2023-03-19T10:30:04.401Z,33.20
2023-03-19T10:33:19.355Z,33.20
2023-03-19T10:36:31.744Z,33.40
2023-03-19T10:39:42.119Z,33.50
2023-03-19T10:43:14.353Z,33.50
2023-03-19T10:46:24.671Z,33.60
2023-03-19T10:49:37.299Z,33.70
2023-03-19T10:52:48.131Z,33.20
2023-03-19T10:55:59.980Z,33.20
2023-03-19T10:59:09.523Z,33.30
2023-03-19T11:02:24.732Z,33.30
2023-03-19T11:05:36.083Z,33.40
2023-03-19T11:08:48.206Z,33.60
2023-03-19T11:12:00.274Z,33.70
2023-03-19T11:15:13.699Z,33.70
2023-03-19T11:18:23.792Z,33.60
2023-03-19T11:21:39.426Z,33.50
2023-03-19T11:24:56.052Z,33.60
2023-03-19T11:28:06.225Z,33.60
2023-03-19T11:31:20.015Z,33.60
2023-03-19T11:34:34.652Z,33.60
2023-03-19T11:37:50.674Z,33.60
2023-03-19T11:41:02.334Z,33.60
2023-03-19T11:44:14.688Z,33.70
2023-03-19T11:47:28.397Z,33.60
2023-03-19T11:50:40.716Z,33.60
2023-03-19T11:53:57.553Z,33.60
2023-03-19T11:57:06.579Z,33.60
2023-03-19T12:00:28.163Z,33.50
2023-03-19T12:04:03.889Z,33.20
2023-03-19T12:07:20.563Z,32.90
2023-03-19T12:10:44.724Z,33.50
2023-03-19T12:14:24.280Z,34.00
2023-03-19T12:17:52.409Z,33.80
2023-03-19T12:21:06.111Z,34.20
2023-03-19T12:24:20.259Z,34.20
2023-03-19T12:27:32.748Z,34.20
2023-03-19T12:30:45.405Z,34.10
2023-03-19T12:33:59.325Z,34.10
2023-03-19T12:37:16.390Z,34.30
2023-03-19T12:40:32.769Z,34.60
2023-03-19T12:43:44.273Z,34.60
2023-03-19T12:46:59.855Z,35.20
2023-03-19T12:50:15.075Z,33.90
2023-03-19T12:53:33.719Z,33.60
2023-03-19T12:56:47.487Z,33.50
2023-03-19T13:00:03.232Z,33.70
2023-03-19T13:03:17.225Z,35.30
2023-03-19T13:06:26.608Z,34.90
2023-03-19T13:09:36.735Z,34.90
2023-03-19T13:12:49.306Z,34.70
2023-03-19T13:15:59.181Z,35.10
2023-03-19T13:19:16.360Z,33.70
2023-03-19T13:22:29.526Z,33.20
2023-03-19T13:25:38.283Z,33.40
2023-03-19T13:29:02.452Z,33.20
2023-03-19T13:32:14.589Z,33.40
2023-03-19T13:35:45.057Z,34.30
2023-03-19T13:38:57.694Z,34.20
2023-03-19T13:45:46.904Z,34.40
2023-03-19T13:49:10.619Z,34.40
2023-03-19T13:52:50.871Z,33.40
2023-03-19T13:56:01.090Z,32.70
2023-03-19T13:59:32.822Z,32.70
2023-03-19T14:02:54.347Z,32.70
2023-03-19T14:06:08.935Z,32.70
2023-03-19T14:09:42.332Z,33.10
2023-03-19T14:12:53.370Z,33.50
2023-03-19T14:16:13.462Z,33.30
2023-03-19T14:19:23.779Z,33.10
2023-03-19T14:22:38.264Z,32.90
2023-03-19T14:26:25.050Z,32.60
2023-03-19T14:37:48.648Z,32.10
2023-03-19T14:41:01.114Z,32.10
2023-03-19T14:48:47.824Z,32.20
2023-03-19T14:55:21.779Z,32.50
2023-03-19T14:58:39.037Z,32.60
2023-03-19T15:01:54.917Z,32.60
2023-03-19T15:05:08.589Z,31.90
2023-03-19T15:08:23.069Z,32.00
2023-03-19T15:12:07.201Z,32.30
2023-03-19T15:15:35.395Z,32.30
2023-03-19T15:18:47.279Z,32.20
2023-03-19T15:22:11.580Z,32.30
2023-03-19T15:25:25.255Z,32.90
2023-03-19T15:28:43.957Z,32.90
2023-03-19T15:32:04.829Z,33.70
2023-03-19T15:35:10.487Z,33.20
2023-03-19T15:38:24.745Z,32.70
2023-03-19T15:41:37.160Z,31.90
2023-03-19T15:44:54.617Z,32.20
2023-03-19T15:48:11.643Z,32.40
2023-03-19T15:51:24.938Z,32.40
2023-03-19T15:54:38.743Z,32.60
2023-03-19T15:57:51.919Z,33.00
2023-03-19T16:01:03.426Z,33.20
2023-03-19T16:04:18.039Z,33.40
2023-03-19T16:07:38.021Z,33.50
2023-03-19T16:10:52.774Z,33.50
2023-03-19T16:14:08.465Z,32.70
2023-03-19T16:17:19.098Z,32.60
2023-03-19T16:20:32.387Z,32.60
2023-03-19T16:23:47.134Z,32.70
2023-03-19T16:27:01.244Z,33.10
2023-03-19T16:30:23.904Z,33.40
2023-03-19T16:33:38.881Z,33.50
2023-03-19T16:36:52.837Z,33.20
2023-03-19T16:40:05.787Z,33.20
2023-03-19T16:43:27.559Z,33.10
2023-03-19T16:46:42.027Z,33.20
2023-03-19T16:49:55.691Z,33.30
2023-03-19T16:53:10.380Z,34.00
2023-03-19T16:56:24.955Z,33.50
2023-03-19T16:59:36.208Z,33.50
2023-03-19T17:02:46.125Z,32.30
2023-03-19T17:06:00.408Z,32.50
2023-03-19T17:09:11.224Z,32.40
2023-03-19T17:12:25.690Z,32.40
2023-03-19T17:15:39.089Z,32.60
2023-03-19T17:18:53.564Z,33.00
2023-03-19T17:22:07.072Z,33.70
2023-03-19T17:25:20.605Z,33.30
2023-03-19T17:28:35.173Z,32.20
2023-03-19T17:31:46.734Z,32.50
2023-03-19T17:34:57.566Z,32.40
2023-03-19T17:38:10.025Z,32.70
2023-03-19T17:41:23.404Z,33.20
2023-03-19T17:44:36.766Z,33.50
2023-03-19T17:47:50.533Z,33.80
2023-03-19T17:51:05.161Z,33.60
2023-03-19T17:57:38.333Z,33.50
2023-03-19T18:00:51.071Z,32.30
2023-03-19T18:04:04.909Z,32.10
2023-03-19T18:07:17.259Z,32.40
2023-03-19T18:10:30.200Z,32.70
2023-03-19T18:13:43.484Z,32.90
2023-03-19T18:16:56.233Z,33.10
2023-03-19T18:20:09.693Z,33.10
2023-03-19T18:23:24.541Z,33.70
2023-03-19T18:26:38.879Z,33.80
2023-03-19T18:29:50.474Z,33.50
2023-03-19T18:33:05.870Z,32.60
2023-03-19T18:36:24.623Z,32.50
2023-03-19T18:39:38.323Z,32.50
2023-03-19T18:42:48.580Z,32.60
2023-03-19T18:46:02.443Z,32.70
2023-03-19T18:49:24.645Z,33.00
2023-03-19T18:52:37.507Z,33.50
2023-03-19T18:55:50.284Z,33.40
2023-03-19T18:59:03.014Z,33.50
2023-03-19T19:02:28.764Z,32.20
2023-03-19T19:05:43.172Z,32.10
2023-03-19T19:08:57.592Z,32.20
2023-03-19T19:12:13.521Z,32.30
2023-03-19T19:15:30.803Z,32.20
2023-03-19T19:18:45.230Z,32.20
2023-03-19T19:21:58.134Z,32.70
2023-03-19T19:25:13.688Z,33.90
2023-03-19T19:28:30.317Z,33.80
2023-03-19T19:31:43.801Z,33.50
2023-03-19T19:34:57.996Z,32.80
2023-03-19T19:38:11.159Z,32.40
2023-03-19T19:41:21.936Z,33.00
2023-03-19T19:44:37.746Z,32.50
2023-03-19T19:47:51.974Z,32.30
2023-03-19T19:51:04.654Z,32.50
2023-03-19T19:54:19.145Z,32.70
2023-03-19T19:57:32.347Z,32.90
2023-03-19T20:00:47.758Z,32.80
2023-03-19T20:03:55.309Z,33.00
2023-03-19T20:07:08.323Z,33.60
2023-03-19T20:10:22.847Z,34.10
2023-03-19T20:13:38.970Z,34.20
2023-03-19T20:16:53.069Z,33.80
2023-03-19T20:20:07.184Z,33.90
2023-03-19T20:23:20.529Z,32.50
2023-03-19T20:26:36.445Z,32.40
2023-03-19T20:29:52.563Z,32.70
2023-03-19T20:33:06.951Z,33.10
2023-03-19T20:36:22.250Z,33.40
2023-03-19T20:39:35.091Z,33.30
2023-03-19T20:42:49.326Z,33.60
2023-03-19T20:46:04.234Z,34.00
2023-03-19T20:49:20.164Z,34.00
2023-03-19T20:52:35.520Z,34.10
2023-03-19T20:55:50.233Z,33.90
2023-03-19T20:59:04.892Z,34.10
2023-03-19T21:02:36.257Z,34.10
2023-03-19T21:05:48.877Z,33.70
2023-03-19T21:09:05.268Z,33.20
2023-03-19T21:12:21.410Z,33.20
2023-03-19T21:15:33.320Z,33.10
2023-03-19T21:18:46.781Z,33.20
2023-03-19T21:22:01.474Z,33.60
2023-03-19T21:25:15.891Z,33.80
2023-03-19T21:28:31.587Z,34.00
2023-03-19T21:31:45.957Z,33.80
2023-03-19T21:35:00.528Z,33.90
2023-03-19T21:38:14.987Z,33.50
2023-03-19T21:41:31.340Z,33.40
2023-03-19T21:44:46.020Z,34.00
2023-03-19T21:48:03.620Z,35.30
2023-03-19T21:51:18.610Z,36.40
2023-03-19T21:54:30.502Z,37.60
2023-03-19T21:57:43.759Z,37.80
2023-03-19T22:00:53.956Z,38.00
2023-03-19T22:04:07.343Z,37.50
2023-03-19T22:07:20.336Z,37.20
2023-03-19T22:10:37.250Z,37.30
2023-03-19T22:13:51.590Z,36.50
2023-03-19T22:17:05.913Z,35.80
2023-03-19T22:20:24.210Z,35.80
2023-03-19T22:23:37.377Z,36.10
2023-03-19T22:26:47.264Z,36.20
2023-03-19T22:30:00.384Z,36.10
2023-03-19T22:33:18.240Z,36.30
2023-03-19T22:36:31.532Z,35.90
2023-03-19T22:39:44.252Z,36.10
2023-03-19T22:42:58.724Z,36.10
2023-03-19T22:46:15.237Z,36.50
2023-03-19T22:49:30.423Z,35.50
2023-03-19T22:52:44.646Z,35.10
2023-03-19T22:55:58.416Z,35.10
2023-03-19T22:59:12.628Z,34.40
2023-03-19T23:02:24.389Z,34.40
2023-03-19T23:05:38.956Z,34.50
2023-03-19T23:08:49.882Z,34.40
2023-03-19T23:12:04.657Z,34.70
2023-03-19T23:15:21.434Z,35.00
2023-03-19T23:18:36.352Z,35.50
2023-03-19T23:21:50.571Z,35.40
2023-03-19T23:25:05.018Z,35.00
2023-03-19T23:28:23.725Z,34.80
2023-03-19T23:31:36.705Z,34.90
2023-03-19T23:34:59.610Z,34.60
2023-03-19T23:38:03.525Z,35.00
2023-03-19T23:41:18.362Z,34.60
2023-03-19T23:44:34.359Z,34.10
2023-03-19T23:47:46.732Z,33.10
2023-03-19T23:50:57.390Z,32.90
2023-03-19T23:54:11.883Z,32.80
2023-03-19T23:57:25.876Z,33.00
